sensor_id;sensor_type;location;lat;lon;timestamp;pressure;altitude;pressure_sealevel;temperature;humidity
78741;BME280;68062;48.726;9.370;2023-04-03T00:00:47;99492.03;;;2.38;84.79
78741;BME280;68062;48.726;9.370;2023-04-03T00:03:15;99482.34;;;2.70;82.88
78741;BME280;68062;48.726;9.370;2023-04-03T00:05:43;99485.00;;;2.52;83.35
78741;BME280;68062;48.726;9.370;2023-04-03T00:08:10;99488.81;;;2.42;84.09
78741;BME280;68062;48.726;9.370;2023-04-03T00:10:37;99491.03;;;2.34;84.19
78741;BME280;68062;48.726;9.370;2023-04-03T00:13:07;99492.16;;;2.21;85.06
78741;BME280;68062;48.726;9.370;2023-04-03T00:15:35;99485.75;;;2.10;85.71
78741;BME280;68062;48.726;9.370;2023-04-03T00:18:03;99489.69;;;2.03;86.02
78741;BME280;68062;48.726;9.370;2023-04-03T00:20:30;99472.34;;;1.93;87.25
78741;BME280;68062;48.726;9.370;2023-04-03T00:22:58;99487.16;;;2.03;86.82
78741;BME280;68062;48.726;9.370;2023-04-03T00:25:25;99496.28;;;1.99;87.76
78741;BME280;68062;48.726;9.370;2023-04-03T00:27:52;99491.09;;;1.96;88.27
78741;BME280;68062;48.726;9.370;2023-04-03T00:30:21;99491.22;;;1.99;88.67
78741;BME280;68062;48.726;9.370;2023-04-03T00:32:49;99490.00;;;1.91;87.64
78741;BME280;68062;48.726;9.370;2023-04-03T00:35:16;99482.13;;;2.44;86.24
78741;BME280;68062;48.726;9.370;2023-04-03T00:37:45;99490.16;;;2.33;85.29
78741;BME280;68062;48.726;9.370;2023-04-03T00:40:14;99484.75;;;2.45;85.39
78741;BME280;68062;48.726;9.370;2023-04-03T00:42:43;99494.53;;;2.16;87.26
78741;BME280;68062;48.726;9.370;2023-04-03T00:45:29;99483.69;;;2.20;88.27
78741;BME280;68062;48.726;9.370;2023-04-03T00:47:57;99429.66;;;1.84;88.74
78741;BME280;68062;48.726;9.370;2023-04-03T00:50:26;99487.09;;;2.01;88.63
78741;BME280;68062;48.726;9.370;2023-04-03T00:52:53;99492.16;;;2.21;87.86
78741;BME280;68062;48.726;9.370;2023-04-03T00:55:20;99486.38;;;2.04;88.98
78741;BME280;68062;48.726;9.370;2023-04-03T00:57:48;99493.75;;;1.99;88.64
78741;BME280;68062;48.726;9.370;2023-04-03T01:00:20;99494.44;;;1.95;90.03
78741;BME280;68062;48.726;9.370;2023-04-03T01:02:49;99497.44;;;1.86;90.32
78741;BME280;68062;48.726;9.370;2023-04-03T01:05:17;99486.16;;;2.19;89.40
78741;BME280;68062;48.726;9.370;2023-04-03T01:07:44;99497.78;;;2.33;87.13
78741;BME280;68062;48.726;9.370;2023-04-03T01:10:16;99491.31;;;2.20;88.74
78741;BME280;68062;48.726;9.370;2023-04-03T01:12:46;99475.19;;;2.20;87.06
78741;BME280;68062;48.726;9.370;2023-04-03T01:15:16;99498.72;;;2.16;88.48
78741;BME280;68062;48.726;9.370;2023-04-03T01:17:46;99503.31;;;2.05;88.35
78741;BME280;68062;48.726;9.370;2023-04-03T01:20:41;99489.69;;;2.03;87.58
78741;BME280;68062;48.726;9.370;2023-04-03T01:23:21;99452.56;;;1.66;88.57
78741;BME280;68062;48.726;9.370;2023-04-03T01:25:52;99491.84;;;2.13;87.08
78741;BME280;68062;48.726;9.370;2023-04-03T01:28:23;99499.25;;;2.09;86.71
78741;BME280;68062;48.726;9.370;2023-04-03T01:30:55;99493.22;;;2.06;86.63
78741;BME280;68062;48.726;9.370;2023-04-03T01:33:25;99496.09;;;1.95;87.99
78741;BME280;68062;48.726;9.370;2023-04-03T01:35:52;99491.91;;;2.15;88.52
78741;BME280;68062;48.726;9.370;2023-04-03T01:38:19;99489.50;;;1.98;89.46
78741;BME280;68062;48.726;9.370;2023-04-03T01:40:46;99493.72;;;1.98;87.45
78741;BME280;68062;48.726;9.370;2023-04-03T01:43:12;99494.25;;;2.10;87.70
78741;BME280;68062;48.726;9.370;2023-04-03T01:45:39;99485.22;;;2.17;86.76
78741;BME280;68062;48.726;9.370;2023-04-03T01:48:06;99488.38;;;2.31;85.70
78741;BME280;68062;48.726;9.370;2023-04-03T01:50:34;99475.16;;;2.18;85.75
78741;BME280;68062;48.726;9.370;2023-04-03T01:53:01;99478.50;;;2.17;83.86
78741;BME280;68062;48.726;9.370;2023-04-03T01:55:28;99485.63;;;2.06;85.58
78741;BME280;68062;48.726;9.370;2023-04-03T01:57:54;99493.31;;;2.08;85.84
78741;BME280;68062;48.726;9.370;2023-04-03T02:00:21;99492.69;;;2.14;85.47
78741;BME280;68062;48.726;9.370;2023-04-03T02:02:49;99492.28;;;2.04;85.51
78741;BME280;68062;48.726;9.370;2023-04-03T02:05:16;99489.63;;;2.21;84.03
78741;BME280;68062;48.726;9.370;2023-04-03T02:07:44;99489.97;;;2.09;84.02
78741;BME280;68062;48.726;9.370;2023-04-03T02:10:11;99496.97;;;1.95;84.43
78741;BME280;68062;48.726;9.370;2023-04-03T02:12:37;99492.41;;;1.88;84.56
78741;BME280;68062;48.726;9.370;2023-04-03T02:15:05;99500.53;;;1.99;83.65
78741;BME280;68062;48.726;9.370;2023-04-03T02:17:32;99494.66;;;2.00;83.25
78741;BME280;68062;48.726;9.370;2023-04-03T02:19:59;99487.97;;;2.02;82.69
78741;BME280;68062;48.726;9.370;2023-04-03T02:22:26;99494.13;;;2.07;82.53
78741;BME280;68062;48.726;9.370;2023-04-03T02:24:54;99496.81;;;1.92;82.90
78741;BME280;68062;48.726;9.370;2023-04-03T02:27:20;99493.09;;;2.03;82.08
78741;BME280;68062;48.726;9.370;2023-04-03T02:29:47;99498.97;;;2.02;82.23
78741;BME280;68062;48.726;9.370;2023-04-03T02:32:14;99494.25;;;2.10;81.51
78741;BME280;68062;48.726;9.370;2023-04-03T02:34:42;99495.84;;;2.08;81.67
78741;BME280;68062;48.726;9.370;2023-04-03T02:37:12;99495.22;;;2.14;81.70
78741;BME280;68062;48.726;9.370;2023-04-03T02:39:39;99494.97;;;2.08;82.16
78741;BME280;68062;48.726;9.370;2023-04-03T02:42:07;99500.84;;;2.06;81.84
78741;BME280;68062;48.726;9.370;2023-04-03T02:44:34;99491.03;;;2.14;81.95
78741;BME280;68062;48.726;9.370;2023-04-03T02:47:01;99496.91;;;2.13;81.61
78741;BME280;68062;48.726;9.370;2023-04-03T02:49:28;99497.59;;;2.09;81.88
78741;BME280;68062;48.726;9.370;2023-04-03T02:51:55;99489.56;;;2.19;80.97
78741;BME280;68062;48.726;9.370;2023-04-03T02:54:21;99500.94;;;2.28;80.11
78741;BME280;68062;48.726;9.370;2023-04-03T02:56:52;99496.66;;;2.27;80.53
78741;BME280;68062;48.726;9.370;2023-04-03T02:59:21;99499.09;;;2.25;80.44
78741;BME280;68062;48.726;9.370;2023-04-03T03:01:48;99502.72;;;2.30;79.56
78741;BME280;68062;48.726;9.370;2023-04-03T03:04:15;99502.44;;;2.24;80.38
78741;BME280;68062;48.726;9.370;2023-04-03T03:06:41;99497.31;;;2.23;79.79
78741;BME280;68062;48.726;9.370;2023-04-03T03:09:08;99500.97;;;2.29;79.33
78741;BME280;68062;48.726;9.370;2023-04-03T03:11:35;99503.13;;;2.20;79.67
78741;BME280;68062;48.726;9.370;2023-04-03T03:14:02;99502.03;;;2.34;78.94
78741;BME280;68062;48.726;9.370;2023-04-03T03:16:30;99506.53;;;2.40;79.27
78741;BME280;68062;48.726;9.370;2023-04-03T03:18:57;99501.47;;;2.40;79.60
78741;BME280;68062;48.726;9.370;2023-04-03T03:21:24;99503.59;;;2.31;79.25
78741;BME280;68062;48.726;9.370;2023-04-03T03:23:50;99499.72;;;2.39;79.30
78741;BME280;68062;48.726;9.370;2023-04-03T03:26:17;99499.59;;;2.36;79.08
78741;BME280;68062;48.726;9.370;2023-04-03T03:28:44;99504.59;;;2.34;78.72
78741;BME280;68062;48.726;9.370;2023-04-03T03:31:11;99500.31;;;2.33;78.73
78741;BME280;68062;48.726;9.370;2023-04-03T03:33:41;99496.72;;;2.28;78.55
78741;BME280;68062;48.726;9.370;2023-04-03T03:36:07;99494.13;;;2.27;78.99
78741;BME280;68062;48.726;9.370;2023-04-03T03:38:35;99497.47;;;2.26;79.23
78741;BME280;68062;48.726;9.370;2023-04-03T03:41:02;99493.91;;;2.22;79.44
78741;BME280;68062;48.726;9.370;2023-04-03T03:43:31;99495.72;;;2.25;79.50
78741;BME280;68062;48.726;9.370;2023-04-03T03:45:58;99494.97;;;2.27;78.92
78741;BME280;68062;48.726;9.370;2023-04-03T03:48:26;99496.16;;;2.35;78.93
78741;BME280;68062;48.726;9.370;2023-04-03T03:50:57;99498.72;;;2.35;78.81
78741;BME280;68062;48.726;9.370;2023-04-03T03:53:29;99446.88;;;2.11;77.93
78741;BME280;68062;48.726;9.370;2023-04-03T03:56:00;99504.19;;;2.45;77.63
78741;BME280;68062;48.726;9.370;2023-04-03T03:58:29;99510.41;;;2.32;77.26
78741;BME280;68062;48.726;9.370;2023-04-03T04:00:56;99498.44;;;2.29;77.07
78741;BME280;68062;48.726;9.370;2023-04-03T04:03:26;99499.38;;;2.31;76.77
78741;BME280;68062;48.726;9.370;2023-04-03T04:05:56;99505.91;;;2.46;76.17
78741;BME280;68062;48.726;9.370;2023-04-03T04:08:23;99497.09;;;2.38;75.86
78741;BME280;68062;48.726;9.370;2023-04-03T04:10:51;99505.66;;;2.40;75.48
78741;BME280;68062;48.726;9.370;2023-04-03T04:13:19;99487.44;;;2.29;75.63
78741;BME280;68062;48.726;9.370;2023-04-03T04:15:46;99498.56;;;2.32;75.91
78741;BME280;68062;48.726;9.370;2023-04-03T04:18:15;99505.31;;;2.52;75.69
78741;BME280;68062;48.726;9.370;2023-04-03T04:20:46;99503.75;;;2.55;75.63
78741;BME280;68062;48.726;9.370;2023-04-03T04:23:17;99502.91;;;2.55;76.47
78741;BME280;68062;48.726;9.370;2023-04-03T04:25:46;99503.66;;;2.32;76.12
78741;BME280;68062;48.726;9.370;2023-04-03T04:28:14;99503.78;;;2.35;76.99
78741;BME280;68062;48.726;9.370;2023-04-03T04:30:42;99499.38;;;2.31;77.06
78741;BME280;68062;48.726;9.370;2023-04-03T04:33:10;99481.44;;;2.27;76.37
78741;BME280;68062;48.726;9.370;2023-04-03T04:35:38;99494.31;;;2.31;76.79
78741;BME280;68062;48.726;9.370;2023-04-03T04:38:06;99495.84;;;2.28;76.14
78741;BME280;68062;48.726;9.370;2023-04-03T04:40:35;99499.63;;;2.38;76.59
78741;BME280;68062;48.726;9.370;2023-04-03T04:43:03;99432.88;;;1.99;76.08
78741;BME280;68062;48.726;9.370;2023-04-03T04:45:30;99496.91;;;2.33;75.25
78741;BME280;68062;48.726;9.370;2023-04-03T04:47:57;99432.59;;;1.93;75.52
78741;BME280;68062;48.726;9.370;2023-04-03T04:50:24;99497.50;;;2.27;75.18
78741;BME280;68062;48.726;9.370;2023-04-03T04:52:53;99503.78;;;2.35;75.10
78741;BME280;68062;48.726;9.370;2023-04-03T04:55:20;99503.59;;;2.50;74.94
78741;BME280;68062;48.726;9.370;2023-04-03T04:57:48;99506.59;;;2.42;74.53
78741;BME280;68062;48.726;9.370;2023-04-03T05:00:16;99511.34;;;2.54;74.05
78741;BME280;68062;48.726;9.370;2023-04-03T05:02:42;99507.53;;;2.44;73.93
78741;BME280;68062;48.726;9.370;2023-04-03T05:05:10;99465.28;;;2.05;74.92
78741;BME280;68062;48.726;9.370;2023-04-03T05:07:37;99509.78;;;2.38;74.36
78741;BME280;68062;48.726;9.370;2023-04-03T05:10:05;99512.88;;;2.30;74.68
78741;BME280;68062;48.726;9.370;2023-04-03T05:12:33;99463.25;;;1.98;75.25
78741;BME280;68062;48.726;9.370;2023-04-03T05:15:05;99514.41;;;2.46;74.44
78741;BME280;68062;48.726;9.370;2023-04-03T05:17:32;99512.81;;;2.48;74.27
78741;BME280;68062;48.726;9.370;2023-04-03T05:20:00;99477.94;;;2.25;73.74
78741;BME280;68062;48.726;9.370;2023-04-03T05:22:27;99520.34;;;2.47;74.53
78741;BME280;68062;48.726;9.370;2023-04-03T05:24:58;99524.88;;;2.54;74.45
78741;BME280;68062;48.726;9.370;2023-04-03T05:27:25;99531.66;;;2.54;74.72
78741;BME280;68062;48.726;9.370;2023-04-03T05:29:54;99529.78;;;2.49;73.18
78741;BME280;68062;48.726;9.370;2023-04-03T05:32:24;99534.50;;;2.42;73.10
78741;BME280;68062;48.726;9.370;2023-04-03T05:35:01;99538.34;;;2.52;72.96
78741;BME280;68062;48.726;9.370;2023-04-03T05:37:28;99537.53;;;2.33;73.51
78741;BME280;68062;48.726;9.370;2023-04-03T05:39:56;99537.19;;;2.25;73.39
78741;BME280;68062;48.726;9.370;2023-04-03T05:42:23;99537.19;;;2.25;73.65
78741;BME280;68062;48.726;9.370;2023-04-03T05:44:50;99538.13;;;2.27;74.25
78741;BME280;68062;48.726;9.370;2023-04-03T05:47:17;99531.44;;;2.29;74.07
78741;BME280;68062;48.726;9.370;2023-04-03T05:49:46;99538.38;;;2.14;74.26
78741;BME280;68062;48.726;9.370;2023-04-03T05:52:20;99540.53;;;2.44;73.81
78741;BME280;68062;48.726;9.370;2023-04-03T05:54:47;99540.06;;;2.33;74.02
78741;BME280;68062;48.726;9.370;2023-04-03T05:57:20;99531.31;;;2.46;72.89
78741;BME280;68062;48.726;9.370;2023-04-03T05:59:47;99542.00;;;2.58;73.20
78741;BME280;68062;48.726;9.370;2023-04-03T06:02:15;99527.16;;;2.48;72.33
78741;BME280;68062;48.726;9.370;2023-04-03T06:04:43;99544.47;;;2.57;72.90
78741;BME280;68062;48.726;9.370;2023-04-03T06:07:13;99494.31;;;2.31;72.82
78741;BME280;68062;48.726;9.370;2023-04-03T06:09:41;99562.06;;;2.73;72.25
78741;BME280;68062;48.726;9.370;2023-04-03T06:12:08;99556.41;;;2.79;73.02
78741;BME280;68062;48.726;9.370;2023-04-03T06:14:36;99565.53;;;2.95;71.53
78741;BME280;68062;48.726;9.370;2023-04-03T06:17:02;99550.22;;;3.15;71.03
78741;BME280;68062;48.726;9.370;2023-04-03T06:19:29;99555.56;;;3.00;71.26
78741;BME280;68062;48.726;9.370;2023-04-03T06:21:56;99552.78;;;2.93;71.20
78741;BME280;68062;48.726;9.370;2023-04-03T06:24:26;99565.72;;;3.00;70.88
78741;BME280;68062;48.726;9.370;2023-04-03T06:26:52;99553.00;;;3.21;70.07
78741;BME280;68062;48.726;9.370;2023-04-03T06:29:20;99552.81;;;2.95;71.17
78741;BME280;68062;48.726;9.370;2023-04-03T06:31:47;99567.78;;;3.08;71.46
78741;BME280;68062;48.726;9.370;2023-04-03T06:34:14;99567.84;;;3.10;71.73
78741;BME280;68062;48.726;9.370;2023-04-03T06:36:42;99556.63;;;3.26;71.09
78741;BME280;68062;48.726;9.370;2023-04-03T06:39:13;99558.13;;;3.42;70.14
78741;BME280;68062;48.726;9.370;2023-04-03T06:41:42;99568.34;;;3.22;70.44
78741;BME280;68062;48.726;9.370;2023-04-03T06:44:10;99570.47;;;3.33;70.88
78741;BME280;68062;48.726;9.370;2023-04-03T06:46:39;99483.41;;;2.75;71.13
78741;BME280;68062;48.726;9.370;2023-04-03T06:49:06;99566.91;;;3.29;71.23
78741;BME280;68062;48.726;9.370;2023-04-03T06:51:35;99567.97;;;3.56;70.59
78741;BME280;68062;48.726;9.370;2023-04-03T06:54:04;99572.66;;;3.67;70.26
78741;BME280;68062;48.726;9.370;2023-04-03T06:56:32;99565.59;;;3.60;70.13
78741;BME280;68062;48.726;9.370;2023-04-03T06:59:01;99569.53;;;3.75;69.92
78741;BME280;68062;48.726;9.370;2023-04-03T07:01:29;99574.47;;;3.70;70.50
78741;BME280;68062;48.726;9.370;2023-04-03T07:03:57;99578.91;;;3.98;69.99
78741;BME280;68062;48.726;9.370;2023-04-03T07:06:25;99570.91;;;3.66;70.87
78741;BME280;68062;48.726;9.370;2023-04-03T07:08:53;99574.91;;;4.05;69.89
78741;BME280;68062;48.726;9.370;2023-04-03T07:11:20;99573.16;;;4.04;69.24
78741;BME280;68062;48.726;9.370;2023-04-03T07:13:47;99572.88;;;4.19;69.96
78741;BME280;68062;48.726;9.370;2023-04-03T07:16:16;99583.03;;;4.42;68.22
78741;BME280;68062;48.726;9.370;2023-04-03T07:18:43;99578.59;;;4.36;69.23
78741;BME280;68062;48.726;9.370;2023-04-03T07:21:10;99570.09;;;4.84;67.65
78741;BME280;68062;48.726;9.370;2023-04-03T07:23:37;99573.34;;;4.80;66.82
78741;BME280;68062;48.726;9.370;2023-04-03T07:26:05;99582.72;;;4.57;68.19
78741;BME280;68062;48.726;9.370;2023-04-03T07:28:33;99571.59;;;4.79;67.38
78741;BME280;68062;48.726;9.370;2023-04-03T07:31:02;99574.63;;;4.45;67.57
78741;BME280;68062;48.726;9.370;2023-04-03T07:33:32;99579.28;;;4.32;67.69
78741;BME280;68062;48.726;9.370;2023-04-03T07:35:59;99575.09;;;5.07;65.73
78741;BME280;68062;48.726;9.370;2023-04-03T07:38:27;99579.59;;;4.90;66.71
78741;BME280;68062;48.726;9.370;2023-04-03T07:40:55;99581.63;;;4.75;67.18
78741;BME280;68062;48.726;9.370;2023-04-03T07:43:22;99582.38;;;5.22;65.52
78741;BME280;68062;48.726;9.370;2023-04-03T07:45:50;99587.69;;;5.56;65.01
78741;BME280;68062;48.726;9.370;2023-04-03T07:48:19;99589.28;;;5.25;66.43
78741;BME280;68062;48.726;9.370;2023-04-03T07:50:49;99585.69;;;5.74;65.03
78741;BME280;68062;48.726;9.370;2023-04-03T07:53:16;99583.78;;;5.40;66.50
78741;BME280;68062;48.726;9.370;2023-04-03T07:55:45;99596.28;;;5.32;65.14
78741;BME280;68062;48.726;9.370;2023-04-03T07:58:14;99588.84;;;5.66;64.96
78741;BME280;68062;48.726;9.370;2023-04-03T08:00:42;99587.53;;;6.67;62.20
78741;BME280;68062;48.726;9.370;2023-04-03T08:03:10;99584.34;;;7.43;60.73
78741;BME280;68062;48.726;9.370;2023-04-03T08:05:37;99581.13;;;7.90;57.72
78741;BME280;68062;48.726;9.370;2023-04-03T08:08:06;99579.75;;;8.91;56.17
78741;BME280;68062;48.726;9.370;2023-04-03T08:10:34;99594.69;;;8.24;56.78
78741;BME280;68062;48.726;9.370;2023-04-03T08:13:02;99585.78;;;7.69;57.08
78741;BME280;68062;48.726;9.370;2023-04-03T08:15:29;99593.66;;;6.42;60.85
78741;BME280;68062;48.726;9.370;2023-04-03T08:17:57;99598.56;;;6.05;63.05
78741;BME280;68062;48.726;9.370;2023-04-03T08:20:23;99605.06;;;5.68;64.36
78741;BME280;68062;48.726;9.370;2023-04-03T08:22:51;99600.00;;;5.97;62.71
78741;BME280;68062;48.726;9.370;2023-04-03T08:25:19;99540.63;;;7.34;59.81
78741;BME280;68062;48.726;9.370;2023-04-03T08:27:46;99594.09;;;7.98;57.69
78741;BME280;68062;48.726;9.370;2023-04-03T08:30:13;99597.97;;;7.07;59.20
78741;BME280;68062;48.726;9.370;2023-04-03T08:32:40;99592.13;;;8.26;55.38
78741;BME280;68062;48.726;9.370;2023-04-03T08:35:08;99571.47;;;9.07;55.20
78741;BME280;68062;48.726;9.370;2023-04-03T08:37:36;99566.59;;;9.23;53.48
78741;BME280;68062;48.726;9.370;2023-04-03T08:40:04;99598.84;;;8.21;55.85
78741;BME280;68062;48.726;9.370;2023-04-03T08:42:43;99587.72;;;9.06;52.93
78741;BME280;68062;48.726;9.370;2023-04-03T08:45:16;99596.03;;;8.08;55.30
78741;BME280;68062;48.726;9.370;2023-04-03T08:47:49;99597.63;;;7.28;58.19
78741;BME280;68062;48.726;9.370;2023-04-03T08:50:20;99583.53;;;7.44;56.98
78741;BME280;68062;48.726;9.370;2023-04-03T08:52:51;99545.69;;;7.69;56.75
78741;BME280;68062;48.726;9.370;2023-04-03T08:55:24;99590.47;;;8.28;55.50
78741;BME280;68062;48.726;9.370;2023-04-03T08:58:00;99597.69;;;8.46;55.05
78741;BME280;68062;48.726;9.370;2023-04-03T09:00:30;99594.75;;;7.51;57.53
78741;BME280;68062;48.726;9.370;2023-04-03T09:03:01;99600.97;;;7.61;57.73
78741;BME280;68062;48.726;9.370;2023-04-03T09:05:35;99604.66;;;7.74;57.21
78741;BME280;68062;48.726;9.370;2023-04-03T09:08:14;99605.41;;;7.33;56.57
78741;BME280;68062;48.726;9.370;2023-04-03T09:10:45;99606.25;;;7.69;56.86
78741;BME280;68062;48.726;9.370;2023-04-03T09:13:21;99602.66;;;7.60;55.63
78741;BME280;68062;48.726;9.370;2023-04-03T09:15:50;99605.63;;;7.07;54.90
78741;BME280;68062;48.726;9.370;2023-04-03T09:18:21;99608.69;;;7.27;55.75
78741;BME280;68062;48.726;9.370;2023-04-03T09:20:57;99611.25;;;8.01;55.42
78741;BME280;68062;48.726;9.370;2023-04-03T09:23:30;99608.31;;;8.23;54.33
78741;BME280;68062;48.726;9.370;2023-04-03T09:26:03;99610.22;;;7.92;55.67
78741;BME280;68062;48.726;9.370;2023-04-03T09:28:37;99605.13;;;7.94;54.63
78741;BME280;68062;48.726;9.370;2023-04-03T09:31:17;99604.34;;;7.98;55.45
78741;BME280;68062;48.726;9.370;2023-04-03T09:33:45;99543.03;;;6.59;54.47
78741;BME280;68062;48.726;9.370;2023-04-03T09:36:13;99606.31;;;7.01;53.17
78741;BME280;68062;48.726;9.370;2023-04-03T09:38:40;99592.94;;;7.12;51.78
78741;BME280;68062;48.726;9.370;2023-04-03T09:41:15;99602.94;;;7.02;53.50
78741;BME280;68062;48.726;9.370;2023-04-03T09:43:52;99597.06;;;7.40;51.03
78741;BME280;68062;48.726;9.370;2023-04-03T09:46:28;99592.16;;;7.14;51.43
78741;BME280;68062;48.726;9.370;2023-04-03T09:48:57;99596.56;;;7.20;49.96
78741;BME280;68062;48.726;9.370;2023-04-03T09:51:25;99596.38;;;7.47;52.45
78741;BME280;68062;48.726;9.370;2023-04-03T09:53:54;99604.91;;;7.46;51.94
78741;BME280;68062;48.726;9.370;2023-04-03T09:56:24;99607.47;;;7.46;51.33
78741;BME280;68062;48.726;9.370;2023-04-03T09:59:08;99605.03;;;7.53;51.75
78741;BME280;68062;48.726;9.370;2023-04-03T10:01:41;99601.97;;;7.32;50.76
78741;BME280;68062;48.726;9.370;2023-04-03T10:04:10;99560.13;;;7.29;53.41
78741;BME280;68062;48.726;9.370;2023-04-03T10:06:39;99604.66;;;7.72;51.27
78741;BME280;68062;48.726;9.370;2023-04-03T10:09:19;99604.13;;;7.15;51.82
78741;BME280;68062;48.726;9.370;2023-04-03T10:12:01;99598.63;;;7.00;51.54
78741;BME280;68062;48.726;9.370;2023-04-03T10:14:32;99575.34;;;6.57;53.74
78741;BME280;68062;48.726;9.370;2023-04-03T10:17:13;99596.22;;;7.06;53.99
78741;BME280;68062;48.726;9.370;2023-04-03T10:19:47;99604.19;;;6.85;55.37
78741;BME280;68062;48.726;9.370;2023-04-03T10:22:20;99552.63;;;6.69;55.50
78741;BME280;68062;48.726;9.370;2023-04-03T10:25:01;99589.47;;;7.10;56.00
78741;BME280;68062;48.726;9.370;2023-04-03T10:27:44;99590.31;;;6.75;56.27
78741;BME280;68062;48.726;9.370;2023-04-03T10:30:30;99594.63;;;6.45;55.97
78741;BME280;68062;48.726;9.370;2023-04-03T10:33:08;99589.06;;;6.30;56.29
78741;BME280;68062;48.726;9.370;2023-04-03T10:35:46;99604.28;;;5.98;57.50
78741;BME280;68062;48.726;9.370;2023-04-03T10:38:22;99598.69;;;5.55;59.08
78741;BME280;68062;48.726;9.370;2023-04-03T10:40:57;99595.00;;;6.00;58.25
78741;BME280;68062;48.726;9.370;2023-04-03T10:43:33;99588.22;;;6.00;58.67
78741;BME280;68062;48.726;9.370;2023-04-03T10:46:08;99597.75;;;6.06;59.63
78741;BME280;68062;48.726;9.370;2023-04-03T10:48:47;99600.91;;;5.71;58.07
78741;BME280;68062;48.726;9.370;2023-04-03T10:51:24;99587.44;;;6.03;57.10
78741;BME280;68062;48.726;9.370;2023-04-03T10:53:56;99602.06;;;5.54;58.18
78741;BME280;68062;48.726;9.370;2023-04-03T10:56:31;99601.22;;;5.53;58.75
78741;BME280;68062;48.726;9.370;2023-04-03T10:59:08;99594.69;;;5.62;58.15
78741;BME280;68062;48.726;9.370;2023-04-03T11:01:42;99589.28;;;6.07;57.60
78741;BME280;68062;48.726;9.370;2023-04-03T11:04:11;99593.38;;;6.02;56.16
78741;BME280;68062;48.726;9.370;2023-04-03T11:06:43;99591.69;;;5.75;56.74
78741;BME280;68062;48.726;9.370;2023-04-03T11:09:19;99569.06;;;5.58;55.67
78741;BME280;68062;48.726;9.370;2023-04-03T11:11:51;99587.25;;;5.69;57.00
78741;BME280;68062;48.726;9.370;2023-04-03T11:14:26;99586.09;;;6.16;55.10
78741;BME280;68062;48.726;9.370;2023-04-03T11:17:11;99575.72;;;6.10;54.39
78741;BME280;68062;48.726;9.370;2023-04-03T11:19:46;99581.66;;;6.71;55.57
78741;BME280;68062;48.726;9.370;2023-04-03T11:22:21;99573.16;;;7.04;53.41
78741;BME280;68062;48.726;9.370;2023-04-03T11:24:58;99575.19;;;6.52;53.15
78741;BME280;68062;48.726;9.370;2023-04-03T11:27:33;99519.31;;;6.65;52.84
78741;BME280;68062;48.726;9.370;2023-04-03T11:30:06;99578.34;;;6.74;52.27
78741;BME280;68062;48.726;9.370;2023-04-03T11:32:52;99571.34;;;7.00;52.26
78741;BME280;68062;48.726;9.370;2023-04-03T11:35:21;99567.34;;;7.10;50.69
78741;BME280;68062;48.726;9.370;2023-04-03T11:37:50;99563.59;;;6.63;52.30
78741;BME280;68062;48.726;9.370;2023-04-03T11:40:22;99573.94;;;6.36;51.84
78741;BME280;68062;48.726;9.370;2023-04-03T11:42:52;99573.56;;;6.54;52.17
78741;BME280;68062;48.726;9.370;2023-04-03T11:45:31;99573.69;;;6.59;52.93
78741;BME280;68062;48.726;9.370;2023-04-03T11:48:03;99519.84;;;5.92;52.99
78741;BME280;68062;48.726;9.370;2023-04-03T11:50:38;99565.56;;;6.42;52.83
78741;BME280;68062;48.726;9.370;2023-04-03T11:53:32;99567.97;;;6.69;52.30
78741;BME280;68062;48.726;9.370;2023-04-03T11:59:15;99553.09;;;6.53;51.06
78741;BME280;68062;48.726;9.370;2023-04-03T12:01:44;99557.72;;;7.01;50.70
78741;BME280;68062;48.726;9.370;2023-04-03T12:04:14;99557.59;;;7.30;50.67
78741;BME280;68062;48.726;9.370;2023-04-03T12:10:14;99550.47;;;7.55;48.99
78741;BME280;68062;48.726;9.370;2023-04-03T12:12:55;99527.09;;;8.21;47.86
78741;BME280;68062;48.726;9.370;2023-04-03T12:15:44;99534.88;;;8.68;46.78
78741;BME280;68062;48.726;9.370;2023-04-03T12:18:42;99537.75;;;7.98;47.46
78741;BME280;68062;48.726;9.370;2023-04-03T12:21:12;99559.25;;;8.05;46.64
78741;BME280;68062;48.726;9.370;2023-04-03T12:23:58;99532.75;;;8.04;45.78
78741;BME280;68062;48.726;9.370;2023-04-03T12:26:30;99541.09;;;8.37;46.84
78741;BME280;68062;48.726;9.370;2023-04-03T12:28:58;99535.78;;;8.71;46.54
78741;BME280;68062;48.726;9.370;2023-04-03T12:31:36;99532.72;;;8.46;46.25
78741;BME280;68062;48.726;9.370;2023-04-03T12:34:15;99523.63;;;8.17;47.75
78741;BME280;68062;48.726;9.370;2023-04-03T12:36:54;99534.56;;;8.51;46.62
78741;BME280;68062;48.726;9.370;2023-04-03T12:39:42;99495.53;;;7.79;48.30
78741;BME280;68062;48.726;9.370;2023-04-03T12:42:31;99526.13;;;8.14;47.71
78741;BME280;68062;48.726;9.370;2023-04-03T12:45:02;99511.19;;;7.93;47.79
78741;BME280;68062;48.726;9.370;2023-04-03T12:47:35;99532.41;;;7.87;46.10
78741;BME280;68062;48.726;9.370;2023-04-03T12:50:16;99525.44;;;8.66;46.81
78741;BME280;68062;48.726;9.370;2023-04-03T12:52:52;99487.94;;;8.73;46.52
78741;BME280;68062;48.726;9.370;2023-04-03T12:55:21;99511.38;;;8.93;45.86
78741;BME280;68062;48.726;9.370;2023-04-03T12:57:48;99511.59;;;9.65;43.63
78741;BME280;68062;48.726;9.370;2023-04-03T13:00:29;99510.91;;;9.79;42.81
78741;BME280;68062;48.726;9.370;2023-04-03T13:02:58;99508.56;;;9.33;46.02
78741;BME280;68062;48.726;9.370;2023-04-03T13:05:25;99511.13;;;8.33;44.95
78741;BME280;68062;48.726;9.370;2023-04-03T13:07:58;99505.03;;;8.28;44.78
78741;BME280;68062;48.726;9.370;2023-04-03T13:10:25;99511.25;;;7.96;47.14
78741;BME280;68062;48.726;9.370;2023-04-03T13:12:54;99508.28;;;7.76;47.92
78741;BME280;68062;48.726;9.370;2023-04-03T13:15:23;99522.03;;;7.41;46.44
78741;BME280;68062;48.726;9.370;2023-04-03T13:17:51;99509.22;;;7.81;46.35
78741;BME280;68062;48.726;9.370;2023-04-03T13:20:23;99468.78;;;7.26;47.67
78741;BME280;68062;48.726;9.370;2023-04-03T13:22:55;99503.97;;;8.16;47.26
78741;BME280;68062;48.726;9.370;2023-04-03T13:25:25;99507.22;;;8.50;45.71
78741;BME280;68062;48.726;9.370;2023-04-03T13:27:54;99511.13;;;8.34;46.79
78741;BME280;68062;48.726;9.370;2023-04-03T13:30:26;99510.59;;;8.06;46.32
78741;BME280;68062;48.726;9.370;2023-04-03T13:32:55;99505.81;;;7.80;45.65